sensor_id;sensor_type;location;lat;lon;timestamp;P1;durP1;ratioP1;P2;durP2;ratioP2
53642;SDS011;39546;45.534;12.048;2023-02-01T00:05:57;48.25;;;31.90;;
53642;SDS011;39546;45.534;12.048;2023-02-01T00:12:00;31.27;;;24.33;;
53642;SDS011;39546;45.534;12.048;2023-02-01T00:18:04;49.38;;;39.95;;
53642;SDS011;39546;45.534;12.048;2023-02-01T00:24:06;37.38;;;26.42;;
53642;SDS011;39546;45.534;12.048;2023-02-01T00:30:08;30.15;;;24.17;;
53642;SDS011;39546;45.534;12.048;2023-02-01T00:36:10;35.10;;;24.75;;
53642;SDS011;39546;45.534;12.048;2023-02-01T00:48:50;32.65;;;25.95;;
53642;SDS011;39546;45.534;12.048;2023-02-01T00:54:52;35.13;;;28.87;;
53642;SDS011;39546;45.534;12.048;2023-02-01T01:01:02;40.97;;;34.97;;
53642;SDS011;39546;45.534;12.048;2023-02-01T01:07:04;53.13;;;37.95;;
53642;SDS011;39546;45.534;12.048;2023-02-01T01:13:06;48.30;;;40.15;;
53642;SDS011;39546;45.534;12.048;2023-02-01T01:19:09;72.60;;;53.03;;
53642;SDS011;39546;45.534;12.048;2023-02-01T01:25:11;76.07;;;53.35;;
53642;SDS011;39546;45.534;12.048;2023-02-01T01:31:15;59.58;;;42.47;;
53642;SDS011;39546;45.534;12.048;2023-02-01T01:37:19;56.37;;;43.13;;
53642;SDS011;39546;45.534;12.048;2023-02-01T01:43:21;57.13;;;42.75;;
53642;SDS011;39546;45.534;12.048;2023-02-01T01:49:24;48.58;;;35.72;;
53642;SDS011;39546;45.534;12.048;2023-02-01T01:55:27;57.42;;;42.28;;
53642;SDS011;39546;45.534;12.048;2023-02-01T02:01:33;31.92;;;24.20;;
53642;SDS011;39546;45.534;12.048;2023-02-01T02:07:36;33.00;;;26.08;;
53642;SDS011;39546;45.534;12.048;2023-02-01T02:13:42;36.00;;;25.85;;
53642;SDS011;39546;45.534;12.048;2023-02-01T02:26:04;29.55;;;22.40;;
53642;SDS011;39546;45.534;12.048;2023-02-01T02:51:46;48.42;;;35.50;;
53642;SDS011;39546;45.534;12.048;2023-02-01T02:58:08;39.28;;;30.10;;
53642;SDS011;39546;45.534;12.048;2023-02-01T03:04:32;29.77;;;21.77;;
53642;SDS011;39546;45.534;12.048;2023-02-01T03:16:53;28.15;;;21.65;;
53642;SDS011;39546;45.534;12.048;2023-02-01T03:23:06;51.00;;;40.20;;
53642;SDS011;39546;45.534;12.048;2023-02-01T03:29:12;37.03;;;25.70;;
53642;SDS011;39546;45.534;12.048;2023-02-01T03:35:17;28.67;;;19.60;;
53642;SDS011;39546;45.534;12.048;2023-02-01T03:41:28;22.95;;;18.05;;
53642;SDS011;39546;45.534;12.048;2023-02-01T03:47:58;39.10;;;27.55;;
53642;SDS011;39546;45.534;12.048;2023-02-01T03:54:01;30.73;;;21.55;;
53642;SDS011;39546;45.534;12.048;2023-02-01T04:00:07;31.35;;;25.15;;
53642;SDS011;39546;45.534;12.048;2023-02-01T04:06:15;28.48;;;19.85;;
53642;SDS011;39546;45.534;12.048;2023-02-01T04:12:17;36.10;;;27.33;;
53642;SDS011;39546;45.534;12.048;2023-02-01T04:18:19;49.60;;;34.35;;
53642;SDS011;39546;45.534;12.048;2023-02-01T04:24:21;26.73;;;21.98;;
53642;SDS011;39546;45.534;12.048;2023-02-01T04:30:23;32.30;;;23.52;;
53642;SDS011;39546;45.534;12.048;2023-02-01T04:36:25;36.05;;;29.08;;
53642;SDS011;39546;45.534;12.048;2023-02-01T04:42:27;31.45;;;24.12;;
53642;SDS011;39546;45.534;12.048;2023-02-01T04:48:29;30.77;;;21.75;;
53642;SDS011;39546;45.534;12.048;2023-02-01T04:54:31;28.02;;;21.37;;
53642;SDS011;39546;45.534;12.048;2023-02-01T05:00:33;26.60;;;20.15;;
53642;SDS011;39546;45.534;12.048;2023-02-01T05:06:35;33.50;;;24.20;;
53642;SDS011;39546;45.534;12.048;2023-02-01T05:12:37;24.48;;;18.45;;
53642;SDS011;39546;45.534;12.048;2023-02-01T05:18:58;19.33;;;14.82;;
53642;SDS011;39546;45.534;12.048;2023-02-01T05:25:00;20.73;;;15.70;;
53642;SDS011;39546;45.534;12.048;2023-02-01T05:31:01;37.50;;;25.65;;
53642;SDS011;39546;45.534;12.048;2023-02-01T05:43:13;28.08;;;18.83;;
53642;SDS011;39546;45.534;12.048;2023-02-01T05:49:15;23.15;;;18.10;;
53642;SDS011;39546;45.534;12.048;2023-02-01T05:55:17;27.92;;;21.02;;
53642;SDS011;39546;45.534;12.048;2023-02-01T06:01:19;44.90;;;28.00;;
53642;SDS011;39546;45.534;12.048;2023-02-01T06:07:21;22.45;;;15.90;;
53642;SDS011;39546;45.534;12.048;2023-02-01T06:13:23;27.73;;;19.12;;
53642;SDS011;39546;45.534;12.048;2023-02-01T06:19:25;38.53;;;31.05;;
53642;SDS011;39546;45.534;12.048;2023-02-01T06:25:27;44.03;;;30.73;;
53642;SDS011;39546;45.534;12.048;2023-02-01T06:31:29;35.60;;;25.08;;
53642;SDS011;39546;45.534;12.048;2023-02-01T06:37:33;38.80;;;26.40;;
53642;SDS011;39546;45.534;12.048;2023-02-01T06:43:35;41.50;;;28.55;;
53642;SDS011;39546;45.534;12.048;2023-02-01T06:49:38;41.10;;;26.20;;
53642;SDS011;39546;45.534;12.048;2023-02-01T06:55:41;33.90;;;23.27;;
53642;SDS011;39546;45.534;12.048;2023-02-01T07:01:52;30.98;;;22.73;;
53642;SDS011;39546;45.534;12.048;2023-02-01T07:07:55;32.72;;;21.95;;
53642;SDS011;39546;45.534;12.048;2023-02-01T07:13:57;102.82;;;65.82;;
53642;SDS011;39546;45.534;12.048;2023-02-01T07:19:59;39.55;;;25.27;;
53642;SDS011;39546;45.534;12.048;2023-02-01T07:26:03;38.45;;;27.48;;
53642;SDS011;39546;45.534;12.048;2023-02-01T07:32:07;28.62;;;20.23;;
53642;SDS011;39546;45.534;12.048;2023-02-01T07:38:09;34.22;;;24.73;;
53642;SDS011;39546;45.534;12.048;2023-02-01T07:44:11;27.90;;;22.20;;
53642;SDS011;39546;45.534;12.048;2023-02-01T07:50:13;49.55;;;33.58;;
53642;SDS011;39546;45.534;12.048;2023-02-01T07:56:16;47.13;;;34.28;;
53642;SDS011;39546;45.534;12.048;2023-02-01T08:02:20;36.80;;;25.83;;
53642;SDS011;39546;45.534;12.048;2023-02-01T08:08:22;47.58;;;33.38;;
53642;SDS011;39546;45.534;12.048;2023-02-01T08:14:43;31.80;;;24.92;;
53642;SDS011;39546;45.534;12.048;2023-02-01T08:20:45;33.97;;;23.55;;
53642;SDS011;39546;45.534;12.048;2023-02-01T08:26:47;26.87;;;18.17;;
53642;SDS011;39546;45.534;12.048;2023-02-01T08:32:49;21.87;;;16.48;;
53642;SDS011;39546;45.534;12.048;2023-02-01T08:38:51;20.98;;;16.62;;
53642;SDS011;39546;45.534;12.048;2023-02-01T08:44:53;22.25;;;16.73;;
53642;SDS011;39546;45.534;12.048;2023-02-01T08:50:55;21.37;;;16.00;;
53642;SDS011;39546;45.534;12.048;2023-02-01T08:56:58;23.38;;;15.95;;
53642;SDS011;39546;45.534;12.048;2023-02-01T09:03:00;21.42;;;15.60;;
53642;SDS011;39546;45.534;12.048;2023-02-01T09:09:02;28.90;;;20.42;;
53642;SDS011;39546;45.534;12.048;2023-02-01T09:15:04;30.60;;;20.83;;
53642;SDS011;39546;45.534;12.048;2023-02-01T09:21:08;37.35;;;25.30;;
53642;SDS011;39546;45.534;12.048;2023-02-01T09:27:10;38.15;;;26.70;;
53642;SDS011;39546;45.534;12.048;2023-02-01T09:33:12;37.15;;;27.02;;
53642;SDS011;39546;45.534;12.048;2023-02-01T09:39:14;42.33;;;28.02;;
53642;SDS011;39546;45.534;12.048;2023-02-01T09:51:45;38.58;;;27.00;;
53642;SDS011;39546;45.534;12.048;2023-02-01T09:57:57;38.80;;;26.12;;
53642;SDS011;39546;45.534;12.048;2023-02-01T10:04:07;36.17;;;26.15;;
53642;SDS011;39546;45.534;12.048;2023-02-01T10:10:35;32.35;;;23.10;;
53642;SDS011;39546;45.534;12.048;2023-02-01T10:29:17;26.00;;;17.45;;
53642;SDS011;39546;45.534;12.048;2023-02-01T10:35:22;30.90;;;20.42;;
53642;SDS011;39546;45.534;12.048;2023-02-01T10:41:35;41.60;;;27.65;;
53642;SDS011;39546;45.534;12.048;2023-02-01T10:47:40;22.48;;;14.05;;
53642;SDS011;39546;45.534;12.048;2023-02-01T10:59:56;32.67;;;23.95;;
53642;SDS011;39546;45.534;12.048;2023-02-01T11:05:58;37.13;;;23.85;;
53642;SDS011;39546;45.534;12.048;2023-02-01T11:12:01;52.40;;;30.98;;
53642;SDS011;39546;45.534;12.048;2023-02-01T11:18:17;48.30;;;32.53;;
53642;SDS011;39546;45.534;12.048;2023-02-01T11:24:25;52.58;;;34.92;;
53642;SDS011;39546;45.534;12.048;2023-02-01T11:30:34;45.00;;;28.00;;
53642;SDS011;39546;45.534;12.048;2023-02-01T11:36:42;24.20;;;14.15;;
53642;SDS011;39546;45.534;12.048;2023-02-01T11:42:55;47.58;;;31.12;;
53642;SDS011;39546;45.534;12.048;2023-02-01T12:14:08;39.58;;;27.50;;
53642;SDS011;39546;45.534;12.048;2023-02-01T12:21:02;34.92;;;22.00;;
53642;SDS011;39546;45.534;12.048;2023-02-01T12:33:39;31.40;;;21.50;;
53642;SDS011;39546;45.534;12.048;2023-02-01T12:40:36;40.55;;;28.48;;
53642;SDS011;39546;45.534;12.048;2023-02-01T12:52:50;53.60;;;37.25;;
53642;SDS011;39546;45.534;12.048;2023-02-01T12:58:55;55.53;;;36.00;;
53642;SDS011;39546;45.534;12.048;2023-02-01T13:05:12;64.78;;;46.85;;
53642;SDS011;39546;45.534;12.048;2023-02-01T13:11:20;55.15;;;32.75;;
53642;SDS011;39546;45.534;12.048;2023-02-01T13:17:42;56.25;;;32.50;;
53642;SDS011;39546;45.534;12.048;2023-02-01T13:23:47;34.63;;;20.35;;
53642;SDS011;39546;45.534;12.048;2023-02-01T13:29:52;45.40;;;30.10;;
53642;SDS011;39546;45.534;12.048;2023-02-01T13:42:52;56.83;;;34.38;;
53642;SDS011;39546;45.534;12.048;2023-02-01T13:48:58;55.78;;;36.35;;
53642;SDS011;39546;45.534;12.048;2023-02-01T13:55:14;41.53;;;27.17;;
53642;SDS011;39546;45.534;12.048;2023-02-01T14:07:25;33.88;;;21.73;;
53642;SDS011;39546;45.534;12.048;2023-02-01T14:25:38;22.75;;;14.93;;
53642;SDS011;39546;45.534;12.048;2023-02-01T14:31:50;26.35;;;16.95;;
53642;SDS011;39546;45.534;12.048;2023-02-01T14:38:08;32.25;;;21.62;;
53642;SDS011;39546;45.534;12.048;2023-02-01T14:44:13;40.40;;;24.37;;
53642;SDS011;39546;45.534;12.048;2023-02-01T14:56:33;27.20;;;18.45;;
53642;SDS011;39546;45.534;12.048;2023-02-01T15:02:36;25.35;;;16.98;;
53642;SDS011;39546;45.534;12.048;2023-02-01T15:08:40;21.60;;;15.50;;
53642;SDS011;39546;45.534;12.048;2023-02-01T15:14:43;27.02;;;18.83;;
53642;SDS011;39546;45.534;12.048;2023-02-01T15:20:55;29.25;;;17.50;;
53642;SDS011;39546;45.534;12.048;2023-02-01T15:33:16;28.25;;;18.77;;
53642;SDS011;39546;45.534;12.048;2023-02-01T15:39:21;26.77;;;15.02;;
53642;SDS011;39546;45.534;12.048;2023-02-01T15:45:32;28.60;;;20.58;;
53642;SDS011;39546;45.534;12.048;2023-02-01T15:51:34;25.77;;;16.33;;
53642;SDS011;39546;45.534;12.048;2023-02-01T15:57:38;32.38;;;21.67;;
53642;SDS011;39546;45.534;12.048;2023-02-01T16:03:44;35.75;;;23.83;;
53642;SDS011;39546;45.534;12.048;2023-02-01T16:09:51;32.10;;;18.73;;
53642;SDS011;39546;45.534;12.048;2023-02-01T16:15:56;23.17;;;16.00;;
53642;SDS011;39546;45.534;12.048;2023-02-01T16:21:58;32.83;;;20.70;;
53642;SDS011;39546;45.534;12.048;2023-02-01T16:28:00;38.58;;;26.70;;
53642;SDS011;39546;45.534;12.048;2023-02-01T16:34:02;36.08;;;22.13;;
53642;SDS011;39546;45.534;12.048;2023-02-01T16:40:05;39.38;;;25.35;;
53642;SDS011;39546;45.534;12.048;2023-02-01T16:46:14;24.73;;;17.23;;
53642;SDS011;39546;45.534;12.048;2023-02-01T16:52:21;38.83;;;25.15;;
53642;SDS011;39546;45.534;12.048;2023-02-01T16:58:26;32.63;;;25.48;;
53642;SDS011;39546;45.534;12.048;2023-02-01T17:04:28;24.00;;;16.02;;
53642;SDS011;39546;45.534;12.048;2023-02-01T17:10:30;23.95;;;17.42;;
53642;SDS011;39546;45.534;12.048;2023-02-01T17:16:32;32.72;;;22.90;;
53642;SDS011;39546;45.534;12.048;2023-02-01T17:22:35;34.92;;;24.80;;
53642;SDS011;39546;45.534;12.048;2023-02-01T17:28:37;37.08;;;25.42;;
53642;SDS011;39546;45.534;12.048;2023-02-01T17:34:39;32.58;;;20.62;;
53642;SDS011;39546;45.534;12.048;2023-02-01T17:40:41;37.20;;;27.52;;
53642;SDS011;39546;45.534;12.048;2023-02-01T17:46:43;31.60;;;19.98;;
53642;SDS011;39546;45.534;12.048;2023-02-01T17:52:45;51.85;;;35.38;;
53642;SDS011;39546;45.534;12.048;2023-02-01T17:58:48;46.63;;;34.45;;
53642;SDS011;39546;45.534;12.048;2023-02-01T18:04:50;58.22;;;40.78;;
53642;SDS011;39546;45.534;12.048;2023-02-01T18:10:57;51.00;;;36.08;;
53642;SDS011;39546;45.534;12.048;2023-02-01T18:17:01;38.70;;;28.33;;
53642;SDS011;39546;45.534;12.048;2023-02-01T18:23:03;62.38;;;42.28;;
53642;SDS011;39546;45.534;12.048;2023-02-01T18:29:05;67.37;;;47.70;;
53642;SDS011;39546;45.534;12.048;2023-02-01T18:35:27;46.20;;;33.95;;
53642;SDS011;39546;45.534;12.048;2023-02-01T18:41:30;45.63;;;33.83;;
53642;SDS011;39546;45.534;12.048;2023-02-01T18:47:32;53.38;;;38.03;;
53642;SDS011;39546;45.534;12.048;2023-02-01T18:53:34;37.92;;;30.15;;
53642;SDS011;39546;45.534;12.048;2023-02-01T18:59:37;70.47;;;49.92;;
53642;SDS011;39546;45.534;12.048;2023-02-01T19:05:39;55.95;;;40.22;;
53642;SDS011;39546;45.534;12.048;2023-02-01T19:11:42;65.20;;;48.58;;
53642;SDS011;39546;45.534;12.048;2023-02-01T19:17:45;41.28;;;30.48;;
53642;SDS011;39546;45.534;12.048;2023-02-01T19:23:49;56.70;;;42.20;;
53642;SDS011;39546;45.534;12.048;2023-02-01T19:29:51;55.20;;;39.92;;
53642;SDS011;39546;45.534;12.048;2023-02-01T19:35:57;50.75;;;38.80;;
53642;SDS011;39546;45.534;12.048;2023-02-01T19:41:59;68.90;;;51.33;;
53642;SDS011;39546;45.534;12.048;2023-02-01T19:48:02;67.25;;;51.10;;
53642;SDS011;39546;45.534;12.048;2023-02-01T19:54:07;53.17;;;39.15;;
53642;SDS011;39546;45.534;12.048;2023-02-01T20:00:10;46.28;;;38.25;;
53642;SDS011;39546;45.534;12.048;2023-02-01T20:06:13;57.92;;;39.65;;
53642;SDS011;39546;45.534;12.048;2023-02-01T20:12:15;40.45;;;33.42;;
53642;SDS011;39546;45.534;12.048;2023-02-01T20:18:19;82.75;;;59.13;;
53642;SDS011;39546;45.534;12.048;2023-02-01T20:24:22;67.95;;;52.22;;
53642;SDS011;39546;45.534;12.048;2023-02-01T20:30:24;45.28;;;36.38;;
53642;SDS011;39546;45.534;12.048;2023-02-01T20:36:29;52.78;;;41.90;;
53642;SDS011;39546;45.534;12.048;2023-02-01T20:42:32;41.95;;;32.35;;
53642;SDS011;39546;45.534;12.048;2023-02-01T20:48:36;56.72;;;45.05;;
53642;SDS011;39546;45.534;12.048;2023-02-01T20:54:38;48.80;;;40.03;;
53642;SDS011;39546;45.534;12.048;2023-02-01T21:00:40;44.63;;;31.73;;
53642;SDS011;39546;45.534;12.048;2023-02-01T21:06:42;52.85;;;36.00;;
53642;SDS011;39546;45.534;12.048;2023-02-01T21:12:44;55.30;;;41.37;;
53642;SDS011;39546;45.534;12.048;2023-02-01T21:18:50;52.50;;;40.78;;
53642;SDS011;39546;45.534;12.048;2023-02-01T21:24:53;53.13;;;39.15;;
53642;SDS011;39546;45.534;12.048;2023-02-01T21:30:55;46.72;;;37.80;;
53642;SDS011;39546;45.534;12.048;2023-02-01T21:36:58;46.65;;;35.08;;
53642;SDS011;39546;45.534;12.048;2023-02-01T21:43:00;62.70;;;45.40;;
53642;SDS011;39546;45.534;12.048;2023-02-01T21:49:02;42.62;;;32.20;;
53642;SDS011;39546;45.534;12.048;2023-02-01T21:55:04;42.72;;;31.45;;
53642;SDS011;39546;45.534;12.048;2023-02-01T22:01:07;50.65;;;39.40;;
53642;SDS011;39546;45.534;12.048;2023-02-01T22:07:10;47.17;;;36.90;;
53642;SDS011;39546;45.534;12.048;2023-02-01T22:13:12;41.15;;;33.00;;
53642;SDS011;39546;45.534;12.048;2023-02-01T22:19:14;36.65;;;28.60;;
53642;SDS011;39546;45.534;12.048;2023-02-01T22:25:17;73.62;;;57.08;;
53642;SDS011;39546;45.534;12.048;2023-02-01T22:31:19;50.67;;;39.60;;
53642;SDS011;39546;45.534;12.048;2023-02-01T22:37:22;39.20;;;29.33;;
53642;SDS011;39546;45.534;12.048;2023-02-01T22:43:24;43.80;;;35.45;;
53642;SDS011;39546;45.534;12.048;2023-02-01T22:49:27;63.70;;;51.42;;
53642;SDS011;39546;45.534;12.048;2023-02-01T22:55:30;64.60;;;49.15;;
53642;SDS011;39546;45.534;12.048;2023-02-01T23:01:33;44.83;;;33.50;;
53642;SDS011;39546;45.534;12.048;2023-02-01T23:07:35;40.92;;;31.10;;
53642;SDS011;39546;45.534;12.048;2023-02-01T23:13:37;35.95;;;30.02;;
53642;SDS011;39546;45.534;12.048;2023-02-01T23:19:40;61.72;;;42.30;;
53642;SDS011;39546;45.534;12.048;2023-02-01T23:25:48;41.67;;;31.73;;
53642;SDS011;39546;45.534;12.048;2023-02-01T23:31:51;51.22;;;37.30;;
53642;SDS011;39546;45.534;12.048;2023-02-01T23:37:53;37.17;;;29.45;;
53642;SDS011;39546;45.534;12.048;2023-02-01T23:43:55;53.42;;;40.78;;
53642;SDS011;39546;45.534;12.048;2023-02-01T23:50:01;72.57;;;51.15;;
53642;SDS011;39546;45.534;12.048;2023-02-01T23:56:03;56.17;;;43.00;;
